Time;durP1;ratioP1;P1;durP2;ratioP2;P2;SDS_P1;SDS_P2;PMS_P1;PMS_P2;Temp;Humidity;BMP_temperature;BMP_pressure;BME280_temperature;BME280_humidity;BME280_pressure;Samples;Min_cycle;Max_cycle;Signal;HPM_P1;HPM_P2
2022/11/03 00:01:51;;;;;;;11.75;2.60;;;10.40;99.90;;;;;;5022183;28;20028;-79
2022/11/03 00:04:19;;;;;;;13.30;2.50;;;10.40;99.90;;;;;;5020324;28;20041;-81
2022/11/03 00:06:50;;;;;;;20.20;3.25;;;10.40;99.90;;;;;;5008175;28;20124;-81
2022/11/03 00:09:17;;;;;;;16.83;2.85;;;10.30;99.90;;;;;;5037452;28;20111;-79
2022/11/03 00:11:44;;;;;;;16.02;3.10;;;10.40;99.90;;;;;;5022190;28;20052;-80
2022/11/03 00:14:11;;;;;;;15.63;3.13;;;10.40;99.90;;;;;;5006924;28;20404;-79
2022/11/03 00:16:38;;;;;;;16.65;2.60;;;10.50;99.90;;;;;;5007255;28;20142;-78
2022/11/03 00:19:04;;;;;;;21.60;3.38;;;10.50;99.90;;;;;;5041605;28;20041;-77
2022/11/03 00:21:30;;;;;;;18.33;2.92;;;10.50;99.90;;;;;;5022330;28;20046;-79
2022/11/03 00:23:56;;;;;;;16.60;2.80;;;10.40;99.90;;;;;;5011360;28;20037;-82
2022/11/03 00:26:24;;;;;;;16.02;2.83;;;10.50;99.90;;;;;;5004196;28;20098;-77
2022/11/03 00:28:52;;;;;;;15.75;2.60;;;10.40;99.90;;;;;;5005945;28;20045;-81
2022/11/03 00:31:26;;;;;;;17.33;3.15;;;10.50;99.90;;;;;;5025139;28;20045;-80
2022/11/03 00:33:53;;;;;;;15.63;2.80;;;10.40;99.90;;;;;;5023939;28;20041;-80
2022/11/03 00:36:23;;;;;;;15.95;2.85;;;10.40;99.90;;;;;;5006625;28;20304;-83
2022/11/03 00:38:49;;;;;;;18.50;2.95;;;10.40;99.90;;;;;;5017053;28;20504;-80
2022/11/03 00:41:19;;;;;;;16.42;3.13;;;10.40;99.90;;;;;;5015330;28;20079;-81
2022/11/03 00:43:46;;;;;;;19.65;3.20;;;10.50;99.90;;;;;;5005168;28;20064;-82
2022/11/03 00:46:12;;;;;;;20.13;3.22;;;10.40;99.90;;;;;;5019221;28;20045;-80
2022/11/03 00:48:38;;;;;;;17.60;3.30;;;10.30;99.90;;;;;;5010551;28;20302;-83
2022/11/03 00:51:13;;;;;;;19.30;2.90;;;10.20;99.90;;;;;;5022963;28;20134;-82
2022/11/03 00:53:45;;;;;;;19.10;3.35;;;10.20;99.90;;;;;;5024508;28;20033;-80
2022/11/03 00:56:17;;;;;;;14.23;2.58;;;10.30;99.90;;;;;;5007252;28;20220;-81
2022/11/03 00:58:43;;;;;;;14.25;2.95;;;10.30;99.90;;;;;;5021495;28;20039;-77
2022/11/03 01:01:15;;;;;;;15.15;2.78;;;10.20;99.90;;;;;;5018498;28;20461;-84
2022/11/03 01:06:48;;;;;;;18.05;2.80;;;10.30;99.90;;;;;;5014781;28;20044;-78
2022/11/03 01:06:50;;;;;;;20.55;3.28;;;10.10;99.90;;;;;;5020347;28;20065;-81
2022/11/03 01:09:21;;;;;;;19.80;3.20;;;10.00;99.90;;;;;;5010984;28;20146;-79
2022/11/03 01:12:09;;;;;;;15.38;2.80;;;10.10;99.90;;;;;;5021408;28;20084;-80
2022/11/03 01:14:42;;;;;;;20.08;3.13;;;10.10;99.90;;;;;;5036237;28;20041;-80
2022/11/03 01:17:11;;;;;;;11.55;2.60;;;10.00;99.90;;;;;;5019190;28;20401;-78
2022/11/03 01:19:36;;;;;;;14.18;2.83;;;9.90;99.90;;;;;;5015214;28;20082;-82
2022/11/03 01:22:02;;;;;;;18.50;2.70;;;9.90;99.90;;;;;;5026528;28;20402;-79
2022/11/03 01:24:27;;;;;;;16.13;3.00;;;10.10;99.90;;;;;;5010299;28;20124;-80
2022/11/03 01:26:56;;;;;;;18.67;2.88;;;10.00;99.90;;;;;;5040220;28;20049;-77
2022/11/03 01:29:22;;;;;;;18.73;3.55;;;10.10;99.90;;;;;;5035550;28;20036;-78
2022/11/03 01:31:48;;;;;;;18.42;2.83;;;10.00;99.90;;;;;;5037901;28;20056;-77
2022/11/03 01:34:19;;;;;;;20.63;3.05;;;10.00;99.90;;;;;;5023043;28;20033;-76
2022/11/03 01:37:23;;;;;;;19.15;3.08;;;10.00;99.90;;;;;;5030301;28;20040;-77
2022/11/03 01:39:49;;;;;;;20.10;3.58;;;10.00;99.90;;;;;;5020607;28;20084;-76
2022/11/03 01:42:14;;;;;;;17.00;2.47;;;10.00;99.90;;;;;;5018965;28;20029;-80
2022/11/03 01:44:48;;;;;;;9.93;2.35;;;10.00;99.90;;;;;;5022355;28;20472;-82
2022/11/03 01:47:27;;;;;;;15.70;2.97;;;10.00;99.90;;;;;;5019562;28;20049;-77
2022/11/03 01:50:26;;;;;;;17.45;3.30;;;10.10;99.90;;;;;;5020020;28;20045;-76
2022/11/03 01:52:56;;;;;;;19.10;3.13;;;10.10;99.90;;;;;;4916717;29;20051;-81
2022/11/03 01:55:27;;;;;;;14.93;2.92;;;10.00;99.90;;;;;;4917151;29;20063;-79
2022/11/03 01:57:58;;;;;;;16.77;2.85;;;10.00;99.90;;;;;;4913662;29;20415;-81
2022/11/03 02:00:24;;;;;;;15.63;2.60;;;10.10;99.90;;;;;;4928711;29;20047;-80
2022/11/03 02:02:50;;;;;;;14.60;2.90;;;10.00;99.90;;;;;;4913255;29;20047;-80
2022/11/03 02:05:17;;;;;;;19.63;2.92;;;10.10;99.90;;;;;;4925762;29;20035;-81
2022/11/03 02:07:57;;;;;;;21.88;2.90;;;10.10;99.90;;;;;;4920017;29;20051;-79
2022/11/03 02:10:24;;;;;;;18.90;3.60;;;10.10;99.90;;;;;;4923797;29;20070;-78
2022/11/03 02:12:49;;;;;;;14.10;2.72;;;10.10;99.90;;;;;;4928033;29;20047;-79
2022/11/03 02:15:17;;;;;;;16.65;3.50;;;10.10;99.90;;;;;;4927667;29;20455;-81
2022/11/03 02:17:46;;;;;;;20.20;2.75;;;10.00;99.90;;;;;;4930230;29;20087;-81
2022/11/03 02:20:19;;;;;;;15.68;2.90;;;10.10;99.90;;;;;;4926010;29;20056;-82
2022/11/03 02:23:19;;;;;;;15.60;2.50;;;10.10;99.90;;;;;;4911489;29;20059;-80
2022/11/03 02:25:51;;;;;;;23.60;3.47;;;10.00;99.90;;;;;;4926157;29;20147;-79
2022/11/03 02:28:20;;;;;;;20.90;2.78;;;10.00;99.90;;;;;;4970395;28;20463;-78
2022/11/03 02:31:15;;;;;;;20.70;3.10;;;10.20;99.90;;;;;;5014539;28;20157;-80
2022/11/03 02:33:50;;;;;;;13.63;2.95;;;10.10;99.90;;;;;;5019662;28;20117;-80
2022/11/03 02:36:22;;;;;;;16.88;3.20;;;9.90;99.90;;;;;;5019233;28;20436;-83
2022/11/03 02:38:56;;;;;;;21.25;2.80;;;10.00;99.90;;;;;;5005546;28;20041;-81
2022/11/03 02:41:23;;;;;;;18.60;3.35;;;10.00;99.90;;;;;;5005359;28;20636;-79
2022/11/03 02:43:50;;;;;;;16.52;3.03;;;10.00;99.90;;;;;;5016169;28;20042;-79
2022/11/03 02:46:17;;;;;;;22.50;3.10;;;10.00;99.90;;;;;;5023249;28;20072;-79
2022/11/03 02:48:42;;;;;;;20.17;3.08;;;9.90;99.90;;;;;;5021596;28;20072;-80
2022/11/03 02:51:10;;;;;;;21.45;3.35;;;9.90;99.90;;;;;;5024692;28;20088;-80
2022/11/03 02:54:05;;;;;;;17.75;2.70;;;10.00;99.90;;;;;;5027142;28;20041;-82
2022/11/03 02:56:36;;;;;;;20.88;3.45;;;10.00;99.90;;;;;;4999867;28;20034;-81
2022/11/03 02:59:08;;;;;;;19.90;3.55;;;10.00;99.90;;;;;;5041101;28;20408;-82
2022/11/03 03:01:46;;;;;;;19.40;2.80;;;9.90;99.90;;;;;;5006685;28;20091;-80
2022/11/03 03:04:34;;;;;;;24.38;3.10;;;10.10;99.90;;;;;;5010057;28;20053;-77
2022/11/03 03:07:05;;;;;;;19.02;3.50;;;10.00;99.90;;;;;;5027606;28;20113;-80
2022/11/03 03:09:40;;;;;;;19.30;3.38;;;10.10;99.90;;;;;;4997592;28;20067;-78
2022/11/03 03:12:09;;;;;;;20.75;2.67;;;10.10;99.90;;;;;;5020454;28;20485;-81
2022/11/03 03:14:37;;;;;;;15.70;2.95;;;10.20;99.90;;;;;;5013130;28;20053;-80
2022/11/03 03:17:30;;;;;;;17.48;3.25;;;10.10;99.90;;;;;;5021229;28;20047;-81
2022/11/03 03:20:17;;;;;;;18.63;3.13;;;10.10;99.90;;;;;;5026248;28;20033;-81
2022/11/03 03:22:50;;;;;;;26.48;3.97;;;10.10;99.90;;;;;;5023605;28;20029;-82
2022/11/03 03:25:33;;;;;;;16.55;3.20;;;10.20;99.90;;;;;;5022406;28;20037;-81
2022/11/03 03:28:10;;;;;;;18.23;2.95;;;10.20;99.90;;;;;;5022113;28;20041;-78
2022/11/03 03:30:37;;;;;;;14.05;2.80;;;10.20;99.90;;;;;;5010490;28;20497;-78
2022/11/03 03:33:05;;;;;;;19.63;3.33;;;10.30;99.90;;;;;;5041392;28;20400;-79
2022/11/03 03:35:51;;;;;;;17.77;3.15;;;10.40;99.90;;;;;;5027479;28;20052;-79
2022/11/03 03:38:23;;;;;;;17.80;3.00;;;10.30;99.90;;;;;;5018158;28;20171;-77
2022/11/03 03:40:52;;;;;;;21.05;2.88;;;10.30;99.90;;;;;;5011996;28;20388;-84
2022/11/03 03:43:21;;;;;;;20.23;3.38;;;10.30;99.90;;;;;;5025278;28;20037;-82
2022/11/03 03:45:50;;;;;;;14.13;2.67;;;10.20;99.90;;;;;;5020214;28;20054;-83
2022/11/03 03:48:16;;;;;;;17.55;2.80;;;10.30;99.90;;;;;;5026934;28;20119;-79
2022/11/03 03:50:43;;;;;;;16.75;2.95;;;10.30;99.90;;;;;;5007827;28;20656;-78
2022/11/03 03:53:12;;;;;;;13.65;2.92;;;10.40;99.90;;;;;;5005942;28;20088;-81
2022/11/03 03:55:49;;;;;;;19.48;3.25;;;10.30;99.90;;;;;;5027534;28;20060;-80
2022/11/03 03:58:16;;;;;;;22.65;3.03;;;10.40;99.90;;;;;;5026809;28;20038;-78
2022/11/03 04:00:42;;;;;;;18.00;2.72;;;10.30;99.90;;;;;;5026192;28;20037;-80
2022/11/03 04:03:16;;;;;;;15.52;2.80;;;10.30;99.90;;;;;;5011155;28;20478;-82
2022/11/03 04:05:42;;;;;;;22.20;3.17;;;10.20;99.90;;;;;;5026459;28;20484;-79
2022/11/03 04:08:08;;;;;;;14.43;2.92;;;10.30;99.90;;;;;;5012282;28;20053;-78
2022/11/03 04:10:33;;;;;;;19.95;3.03;;;10.20;99.90;;;;;;5011666;28;20045;-83
2022/11/03 04:24:10;;;;;;;19.10;3.42;;;10.00;99.90;;;;;;4963881;28;20054;-80
2022/11/03 04:26:36;;;;;;;16.05;2.90;;;10.00;99.90;;;;;;4940402;28;20062;-79
2022/11/03 04:29:05;;;;;;;22.63;3.50;;;9.90;99.90;;;;;;4951666;28;20056;-80
2022/11/03 04:31:35;;;;;;;18.80;3.28;;;10.00;99.90;;;;;;4953955;28;21495;-78
2022/11/03 04:34:03;;;;;;;15.15;2.90;;;10.00;99.90;;;;;;4947889;28;20098;-78
2022/11/03 04:36:29;;;;;;;22.67;2.92;;;10.10;99.90;;;;;;4949083;28;20047;-79
2022/11/03 04:38:55;;;;;;;14.75;2.70;;;10.00;99.90;;;;;;4950287;28;20093;-82
2022/11/03 04:41:32;;;;;;;24.83;3.63;;;9.90;99.90;;;;;;4934756;28;20104;-79
2022/11/03 04:43:58;;;;;;;19.20;3.13;;;10.00;99.90;;;;;;4945078;28;20074;-81
2022/11/03 04:46:29;;;;;;;16.02;3.00;;;10.20;99.90;;;;;;4950824;28;20058;-80
2022/11/03 04:49:00;;;;;;;18.25;3.15;;;10.10;99.90;;;;;;4939022;28;20050;-79
2022/11/03 04:51:29;;;;;;;20.95;3.03;;;10.20;99.90;;;;;;4992739;28;20507;-80
2022/11/03 04:54:02;;;;;;;17.27;2.95;;;10.20;99.90;;;;;;5023104;28;20047;-80
2022/11/03 04:56:28;;;;;;;19.23;3.53;;;10.30;99.90;;;;;;5026340;28;20049;-79
2022/11/03 04:58:54;;;;;;;14.57;3.03;;;10.20;99.90;;;;;;5032076;28;20110;-81
2022/11/03 05:01:22;;;;;;;16.42;3.20;;;10.20;99.90;;;;;;5032924;28;20041;-81
2022/11/03 05:03:51;;;;;;;19.00;3.35;;;10.30;99.90;;;;;;5018979;28;20072;-80
2022/11/03 05:06:26;;;;;;;14.35;3.05;;;10.30;99.90;;;;;;5010480;28;20037;-80
2022/11/03 05:09:06;;;;;;;18.98;2.78;;;10.30;99.90;;;;;;5018378;28;20127;-82
2022/11/03 05:11:43;;;;;;;19.77;2.90;;;10.10;99.90;;;;;;5018198;28;20037;-83
2022/11/03 05:14:24;;;;;;;17.33;3.55;;;10.30;99.90;;;;;;5025093;28;20037;-78
2022/11/03 05:16:55;;;;;;;19.20;3.30;;;10.10;99.90;;;;;;5030898;28;20040;-79
2022/11/03 05:19:27;;;;;;;19.13;2.97;;;10.30;99.90;;;;;;5051517;28;20041;-80
2022/11/03 05:21:55;;;;;;;17.42;3.20;;;10.10;99.90;;;;;;5029844;28;20385;-77
2022/11/03 05:24:25;;;;;;;18.25;2.90;;;10.30;99.90;;;;;;5020112;28;20547;-80
2022/11/03 05:26:53;;;;;;;14.20;3.17;;;10.20;99.90;;;;;;5005460;28;20071;-81
2022/11/03 05:29:24;;;;;;;17.90;3.22;;;10.30;99.90;;;;;;5011397;28;20457;-82
2022/11/03 05:31:52;;;;;;;13.40;2.88;;;10.10;99.90;;;;;;5019734;28;20041;-81
2022/11/03 05:34:33;;;;;;;19.30;3.10;;;10.10;99.90;;;;;;5000284;28;20127;-78
2022/11/03 05:37:21;;;;;;;13.48;3.10;;;10.30;99.90;;;;;;5009195;28;20480;-79
2022/11/03 05:39:48;;;;;;;16.90;3.03;;;10.10;99.90;;;;;;5019269;28;20493;-81
2022/11/03 05:42:35;;;;;;;14.15;2.63;;;10.00;99.90;;;;;;5019402;28;20046;-77
2022/11/03 05:45:04;;;;;;;18.40;3.30;;;10.30;99.90;;;;;;5016140;28;20165;-80
2022/11/03 05:47:41;;;;;;;19.88;3.00;;;10.00;99.90;;;;;;5006270;28;20495;-82
2022/11/03 05:50:21;;;;;;;17.45;3.40;;;10.10;99.90;;;;;;5023353;28;20394;-82
2022/11/03 05:52:50;;;;;;;17.48;3.20;;;10.00;99.90;;;;;;5013713;28;20049;-78
2022/11/03 05:55:26;;;;;;;21.17;3.25;;;10.10;99.90;;;;;;5008296;28;20955;-78
2022/11/03 05:57:58;;;;;;;13.50;2.97;;;10.00;99.90;;;;;;5018828;28;20045;-80
2022/11/03 06:00:26;;;;;;;20.85;2.95;;;9.90;99.90;;;;;;5019740;28;20037;-78
2022/11/03 06:02:52;;;;;;;17.98;3.25;;;10.00;99.90;;;;;;5016133;28;20052;-80
2022/11/03 06:05:20;;;;;;;14.45;2.80;;;10.00;99.90;;;;;;5019466;28;20037;-81
2022/11/03 06:07:48;;;;;;;15.48;3.22;;;10.00;99.90;;;;;;5010170;28;20350;-78
2022/11/03 06:10:24;;;;;;;13.98;2.78;;;10.00;99.90;;;;;;5014452;28;20049;-79
2022/11/03 06:12:50;;;;;;;16.83;3.25;;;10.00;99.90;;;;;;5025401;28;20084;-78
2022/11/03 06:15:27;;;;;;;15.57;2.55;;;9.90;99.90;;;;;;5014319;28;20057;-82
2022/11/03 06:17:53;;;;;;;14.98;3.25;;;10.00;99.90;;;;;;5007607;28;20041;-77
2022/11/03 06:20:38;;;;;;;16.33;2.90;;;9.90;99.90;;;;;;5011881;28;20050;-80
2022/11/03 06:23:07;;;;;;;;;;;9.80;99.90;;;;;;5013606;28;20034;-82
2022/11/03 06:25:36;;;;;;;15.88;3.20;;;10.00;99.90;;;;;;5017305;28;19921;-82
2022/11/03 06:28:05;;;;;;;14.85;2.70;;;10.00;99.90;;;;;;5013075;28;20044;-81
2022/11/03 06:30:37;;;;;;;16.17;3.33;;;10.00;99.90;;;;;;5027298;28;20041;-80
2022/11/03 06:33:14;;;;;;;19.13;3.05;;;9.90;99.90;;;;;;5034013;28;20456;-77
2022/11/03 06:35:42;;;;;;;20.17;3.03;;;10.00;99.90;;;;;;5007486;28;20068;-80
2022/11/03 06:38:19;;;;;;;18.13;3.08;;;10.00;99.90;;;;;;5033923;28;20108;-79
2022/11/03 06:40:48;;;;;;;16.48;2.88;;;10.00;99.90;;;;;;5016137;28;21807;-78
2022/11/03 06:43:24;;;;;;;15.15;2.95;;;10.00;99.90;;;;;;5014891;28;20397;-80
2022/11/03 06:45:56;;;;;;;15.45;2.72;;;10.10;99.90;;;;;;5018878;28;20172;-81
2022/11/03 06:48:28;;;;;;;21.80;3.63;;;10.20;99.90;;;;;;5006685;28;20040;-76
2022/11/03 06:51:34;;;;;;;15.38;3.08;;;10.20;99.90;;;;;;5017032;28;20037;-76
2022/11/03 06:54:04;;;;;;;15.68;3.05;;;10.00;99.90;;;;;;4971008;28;20042;-79
2022/11/03 06:56:34;;;;;;;19.88;3.28;;;10.20;99.90;;;;;;4984902;28;20053;-80
2022/11/03 06:59:00;;;;;;;14.25;3.08;;;10.10;99.90;;;;;;4970193;28;20065;-78
2022/11/03 07:01:33;;;;;;;15.60;2.70;;;10.20;99.90;;;;;;4974175;28;20057;-78
2022/11/03 07:04:03;;;;;;;17.50;3.03;;;10.00;99.90;;;;;;4968275;28;20129;-76
2022/11/03 07:06:33;;;;;;;20.20;3.00;;;10.10;99.90;;;;;;4979665;28;20072;-77
2022/11/03 07:09:03;;;;;;;18.10;3.55;;;10.20;99.90;;;;;;4968841;28;20438;-78
2022/11/03 07:11:41;;;;;;;18.00;3.38;;;10.10;99.90;;;;;;4965897;28;20050;-75
2022/11/03 07:14:16;;;;;;;17.00;3.30;;;10.10;99.90;;;;;;4962185;28;20390;-80
2022/11/03 07:16:53;;;;;;;;;;;10.40;99.90;;;;;;4964217;28;20594;-79
2022/11/03 07:19:28;;;;;;;13.88;2.70;;;10.30;99.90;;;;;;4962663;28;20003;-80
2022/11/03 07:21:57;;;;;;;14.05;3.22;;;10.40;99.90;;;;;;4966342;28;20391;-77
2022/11/03 07:24:25;;;;;;;17.38;3.42;;;10.40;99.90;;;;;;4973066;28;20409;-78
2022/11/03 07:27:18;;;;;;;13.85;2.90;;;10.40;99.90;;;;;;5016371;28;20056;-80
2022/11/03 07:29:45;;;;;;;15.55;3.20;;;10.40;99.90;;;;;;5012100;28;20136;-77
2022/11/03 07:32:17;;;;;;;16.48;3.10;;;10.40;99.90;;;;;;5000702;28;20057;-78
2022/11/03 07:34:44;;;;;;;12.98;2.92;;;10.50;99.90;;;;;;5002994;28;20060;-78
2022/11/03 07:37:17;;;;;;;19.77;4.25;;;10.70;99.90;;;;;;4993529;28;20145;-78
2022/11/03 07:39:43;;;;;;;14.50;3.03;;;10.70;99.90;;;;;;4995348;28;20068;-78
2022/11/03 07:42:19;;;;;;;12.93;3.05;;;10.60;99.90;;;;;;5013890;28;20033;-78
2022/11/03 07:44:46;;;;;;;17.98;3.60;;;10.80;99.90;;;;;;5019579;28;20053;-78
2022/11/03 07:47:25;;;;;;;25.95;3.28;;;10.80;99.90;;;;;;5015892;28;20075;-77
2022/11/03 07:49:56;;;;;;;13.77;3.03;;;10.90;99.90;;;;;;5006826;28;20061;-77
2022/11/03 07:52:24;;;;;;;15.20;3.28;;;10.90;99.90;;;;;;5014356;28;20883;-78
2022/11/03 07:54:53;;;;;;;22.95;3.40;;;10.90;99.90;;;;;;5013827;28;22018;-79
2022/11/03 07:57:26;;;;;;;16.33;3.15;;;11.00;99.90;;;;;;5014010;28;20503;-78
2022/11/03 07:59:54;;;;;;;19.77;3.60;;;11.00;99.90;;;;;;4999641;28;20052;-78
2022/11/03 08:02:38;;;;;;;16.50;2.95;;;11.00;99.90;;;;;;5021339;28;20065;-79
2022/11/03 08:05:04;;;;;;;18.35;3.65;;;11.10;99.90;;;;;;5012603;28;20136;-80
2022/11/03 08:07:30;;;;;;;21.70;3.22;;;11.20;99.90;;;;;;5010358;28;20403;-78
2022/11/03 08:09:56;;;;;;;18.20;3.35;;;11.20;99.90;;;;;;5033280;28;20455;-77
2022/11/03 08:12:22;;;;;;;19.60;3.33;;;11.40;99.90;;;;;;5017950;28;20049;-76
2022/11/03 08:14:47;;;;;;;18.13;3.28;;;11.40;99.90;;;;;;5021821;28;20071;-80
2022/11/03 08:17:13;;;;;;;14.95;3.20;;;11.40;99.90;;;;;;5018501;28;20083;-80
2022/11/03 08:19:39;;;;;;;18.52;2.88;;;11.50;99.90;;;;;;5010279;28;20147;-79
2022/11/03 08:22:05;;;;;;;12.40;3.05;;;11.30;99.90;;;;;;5015720;28;20056;-77
2022/11/03 08:24:31;;;;;;;14.23;2.90;;;11.40;99.90;;;;;;5020540;28;20072;-78
2022/11/03 08:26:56;;;;;;;19.60;3.33;;;11.60;99.90;;;;;;5018216;28;20053;-79
2022/11/03 08:29:23;;;;;;;18.27;3.33;;;11.60;99.90;;;;;;5001638;28;20096;-80
2022/11/03 08:31:49;;;;;;;15.65;3.00;;;11.80;99.90;;;;;;5011939;28;20059;-80
2022/11/03 08:34:15;;;;;;;13.23;2.92;;;11.80;99.90;;;;;;4990869;28;20584;-79
2022/11/03 08:36:41;;;;;;;15.75;2.80;;;11.90;99.90;;;;;;5019246;28;20072;-79
2022/11/03 08:39:06;;;;;;;23.30;3.72;;;11.90;99.90;;;;;;5016309;28;20086;-78
2022/11/03 08:41:32;;;;;;;19.38;3.63;;;12.10;99.90;;;;;;5015557;28;20076;-79
2022/11/03 08:43:57;;;;;;;10.93;2.83;;;12.20;99.90;;;;;;5006349;28;20118;-80
2022/11/03 08:46:23;;;;;;;14.50;3.25;;;12.30;99.90;;;;;;5021733;28;20052;-79
2022/11/03 08:48:49;;;;;;;14.25;3.33;;;12.20;99.90;;;;;;5029519;28;20071;-78
2022/11/03 08:51:15;;;;;;;17.65;3.38;;;12.40;99.90;;;;;;5014827;28;20049;-79
2022/11/03 08:53:41;;;;;;;14.40;2.80;;;12.50;99.90;;;;;;5031722;28;20048;-79
2022/11/03 08:56:07;;;;;;;17.15;2.90;;;12.50;99.90;;;;;;5016988;28;20068;-78
2022/11/03 08:58:33;;;;;;;19.77;3.45;;;12.50;99.90;;;;;;5014672;28;20049;-77
2022/11/03 09:00:59;;;;;;;15.70;3.03;;;12.50;99.90;;;;;;5023958;28;20049;-81
2022/11/03 09:03:24;;;;;;;15.43;3.00;;;12.50;99.90;;;;;;5015877;28;20377;-78
2022/11/03 09:05:50;;;;;;;14.77;3.00;;;12.40;99.90;;;;;;5017494;28;20064;-80
2022/11/03 09:08:16;;;;;;;15.27;3.28;;;12.40;99.90;;;;;;5016445;28;20053;-80
2022/11/03 09:10:45;;;;;;;17.10;3.72;;;12.50;99.90;;;;;;5026905;28;20045;-78
2022/11/03 09:13:10;;;;;;;18.98;3.30;;;12.50;99.90;;;;;;5029214;28;20060;-78
2022/11/03 09:15:36;;;;;;;18.05;3.47;;;12.60;99.90;;;;;;5036317;28;20045;-79
2022/11/03 09:18:02;;;;;;;14.40;3.20;;;12.50;99.90;;;;;;5029293;28;20056;-76
2022/11/03 09:20:28;;;;;;;16.77;3.17;;;12.60;99.90;;;;;;5009241;28;20045;-79
2022/11/03 09:22:53;;;;;;;15.43;3.33;;;12.70;99.90;;;;;;5016175;28;20045;-81
2022/11/03 09:25:20;;;;;;;9.63;2.47;;;12.70;99.90;;;;;;5032023;28;20397;-79
2022/11/03 09:27:46;;;;;;;17.58;3.13;;;12.70;99.90;;;;;;5030831;28;20051;-79
2022/11/03 09:30:12;;;;;;;15.65;3.13;;;12.70;99.90;;;;;;5027752;28;20128;-78
2022/11/03 09:32:38;;;;;;;12.27;3.25;;;12.80;99.90;;;;;;5029070;28;20067;-80
2022/11/03 09:35:06;;;;;;;17.20;3.53;;;12.80;99.90;;;;;;5017824;28;20037;-77
2022/11/03 09:37:32;;;;;;;18.85;3.55;;;12.90;99.90;;;;;;5028977;28;20484;-78
2022/11/03 09:39:57;;;;;;;18.30;3.78;;;13.00;99.90;;;;;;5015686;28;20091;-79
2022/11/03 09:42:24;;;;;;;14.75;3.25;;;12.90;99.90;;;;;;5019108;28;20049;-79
2022/11/03 09:44:52;;;;;;;22.38;3.75;;;13.00;99.90;;;;;;5030648;28;20463;-80
2022/11/03 09:47:34;;;;;;;21.80;3.65;;;12.90;99.90;;;;;;5071491;28;20051;-81
2022/11/03 09:50:01;;;;;;;17.42;3.78;;;13.10;99.90;;;;;;5040902;28;20495;-79
2022/11/03 09:52:27;;;;;;;25.67;3.83;;;13.20;99.90;;;;;;5004728;28;20068;-80
2022/11/03 09:54:58;;;;;;;14.80;2.90;;;13.30;99.90;;;;;;5039881;28;20040;-79
2022/11/03 09:57:26;;;;;;;21.48;3.67;;;13.40;99.90;;;;;;5021775;28;20437;-80
2022/11/03 09:59:53;;;;;;;17.08;3.08;;;13.40;99.90;;;;;;5039532;28;20053;-78
2022/11/03 10:02:24;;;;;;;14.00;3.17;;;13.50;99.90;;;;;;5033903;28;20049;-79
2022/11/03 10:04:52;;;;;;;14.00;3.05;;;13.50;99.90;;;;;;5039634;28;20197;-82
2022/11/03 10:07:19;;;;;;;15.63;3.25;;;13.70;99.90;;;;;;5005821;28;20135;-79
2022/11/03 10:09:48;;;;;;;16.90;3.42;;;13.70;99.90;;;;;;5023351;28;20049;-79
2022/11/03 10:12:15;;;;;;;18.80;3.22;;;13.80;99.90;;;;;;5022801;28;20053;-79
2022/11/03 10:14:42;;;;;;;18.40;2.67;;;13.80;99.90;;;;;;5012048;28;20049;-79
2022/11/03 10:17:16;;;;;;;12.63;3.00;;;14.00;99.90;;;;;;5017577;28;20399;-79
2022/11/03 10:19:42;;;;;;;19.85;3.40;;;13.90;99.90;;;;;;5033780;28;20048;-77
2022/11/03 10:22:11;;;;;;;14.45;3.00;;;14.00;99.90;;;;;;5031825;28;20045;-80
2022/11/03 10:24:37;;;;;;;16.23;3.50;;;14.10;99.90;;;;;;5017563;28;20052;-77
2022/11/03 10:27:03;;;;;;;13.07;3.33;;;14.00;99.90;;;;;;5037864;28;20040;-76
2022/11/03 10:29:29;;;;;;;13.32;3.08;;;14.10;99.90;;;;;;5032959;28;20129;-83
2022/11/03 10:31:57;;;;;;;13.95;3.00;;;14.10;99.90;;;;;;5035642;28;20121;-77
2022/11/03 10:34:39;;;;;;;16.52;3.00;;;14.10;99.90;;;;;;5014131;28;20080;-80
2022/11/03 10:37:25;;;;;;;13.23;3.08;;;14.10;99.90;;;;;;5022075;28;20053;-79
2022/11/03 10:39:53;;;;;;;16.20;3.30;;;14.00;99.90;;;;;;5026052;28;20048;-80
2022/11/03 10:42:28;;;;;;;15.40;3.28;;;14.10;99.90;;;;;;5017065;28;20049;-82
2022/11/03 10:45:16;;;;;;;14.70;3.30;;;14.10;99.90;;;;;;5003113;28;20580;-80
2022/11/03 10:47:41;;;;;;;19.50;3.50;;;14.30;99.90;;;;;;5017823;28;20029;-81
2022/11/03 10:50:27;;;;;;;13.77;2.92;;;14.20;99.90;;;;;;5020587;28;20487;-81
2022/11/03 10:52:53;;;;;;;15.43;3.63;;;14.40;99.90;;;;;;5017986;28;20140;-79
2022/11/03 10:55:21;;;;;;;13.20;2.95;;;14.50;99.90;;;;;;5016175;28;20077;-79
2022/11/03 10:57:48;;;;;;;18.75;3.10;;;14.50;99.90;;;;;;5017480;28;20045;-79
2022/11/03 11:00:16;;;;;;;17.10;3.65;;;14.70;99.90;;;;;;5016868;28;20162;-81
2022/11/03 11:02:46;;;;;;;16.95;3.17;;;14.60;99.90;;;;;;5019920;28;20048;-79
2022/11/03 11:05:20;;;;;;;12.32;2.90;;;14.70;99.90;;;;;;5021891;28;20050;-80
2022/11/03 11:07:49;;;;;;;19.60;3.13;;;14.80;99.90;;;;;;5025648;28;20060;-81
2022/11/03 11:10:18;;;;;;;14.05;3.28;;;14.80;99.90;;;;;;5027972;28;20171;-79
2022/11/03 11:13:16;;;;;;;16.40;3.10;;;14.90;99.90;;;;;;5036403;28;20492;-76
2022/11/03 11:15:45;;;;;;;13.95;2.80;;;15.00;99.90;;;;;;5019830;28;20152;-76
2022/11/03 11:18:33;;;;;;;11.45;2.70;;;15.10;99.90;;;;;;5031546;28;20386;-78
2022/11/03 11:21:16;;;;;;;12.85;2.72;;;15.30;99.90;;;;;;5023751;28;20045;-79
2022/11/03 11:23:43;;;;;;;13.65;2.88;;;15.40;99.90;;;;;;5018501;28;20076;-79
2022/11/03 11:26:09;;;;;;;14.00;2.80;;;15.40;99.90;;;;;;5021136;28;20048;-80
2022/11/03 11:28:35;;;;;;;14.38;2.78;;;15.50;99.90;;;;;;5017880;28;20500;-81
2022/11/03 11:31:01;;;;;;;12.77;2.40;;;15.50;99.90;;;;;;5035166;28;20075;-80
2022/11/03 11:33:30;;;;;;;13.13;2.65;;;15.50;99.90;;;;;;4995038;28;20154;-77
2022/11/03 11:35:56;;;;;;;15.25;2.70;;;15.50;99.90;;;;;;4999732;28;20380;-79
2022/11/03 11:38:58;;;;;;;11.07;2.70;;;15.70;99.90;;;;;;5028457;28;20139;-79
2022/11/03 11:42:02;;;;;;;10.73;2.63;;;15.60;99.90;;;;;;5017955;28;20041;-81
2022/11/03 11:45:02;;;;;;;11.20;2.67;;;15.60;99.90;;;;;;5029226;28;20338;-78
2022/11/03 11:47:46;;;;;;;11.10;2.55;;;15.60;99.90;;;;;;4963205;28;20054;-80
2022/11/03 11:50:24;;;;;;;16.77;2.53;;;15.50;99.90;;;;;;4962383;28;20401;-80
2022/11/03 11:53:02;;;;;;;9.73;2.55;;;15.40;99.90;;;;;;4937019;28;20494;-78
2022/11/03 11:55:39;;;;;;;11.65;2.47;;;15.40;99.90;;;;;;4941014;28;20063;-79
2022/11/03 11:58:17;;;;;;;16.55;2.97;;;15.40;99.90;;;;;;4950282;28;20089;-79
2022/11/03 12:00:58;;;;;;;11.45;2.63;;;15.40;99.90;;;;;;4940762;28;20054;-78
2022/11/03 12:03:33;;;;;;;12.02;2.40;;;15.40;99.90;;;;;;4960604;28;20051;-79
2022/11/03 12:05:59;;;;;;;14.13;2.58;;;15.40;99.90;;;;;;4947871;28;20043;-80
2022/11/03 12:08:28;;;;;;;11.75;2.60;;;15.40;99.90;;;;;;4954062;28;20391;-80
2022/11/03 12:11:02;;;;;;;9.73;1.90;;;15.40;99.90;;;;;;4943633;28;20054;-80
2022/11/03 12:13:46;;;;;;;13.48;2.47;;;15.40;99.90;;;;;;4939040;28;20173;-81
2022/11/03 12:16:33;;;;;;;16.17;2.45;;;15.40;99.90;;;;;;4947385;28;20067;-79
2022/11/03 12:19:33;;;;;;;12.98;2.83;;;15.40;99.90;;;;;;4967671;28;20137;-79
2022/11/03 12:21:59;;;;;;;8.43;2.10;;;15.50;99.90;;;;;;4932715;28;20054;-79
2022/11/03 12:24:48;;;;;;;11.85;2.50;;;15.40;99.90;;;;;;4986592;28;20052;-77
2022/11/03 12:27:43;;;;;;;11.57;2.35;;;15.40;99.90;;;;;;5021602;28;20080;-77
2022/11/03 12:30:15;;;;;;;12.98;2.53;;;15.30;99.90;;;;;;4968027;28;20233;-79
2022/11/03 12:32:41;;;;;;;19.95;2.47;;;15.30;99.90;;;;;;4933540;28;20140;-80
2022/11/03 12:35:09;;;;;;;15.88;2.17;;;15.30;99.90;;;;;;4942455;28;20058;-79
2022/11/03 12:40:56;;;;;;;10.95;2.55;;;15.20;99.90;;;;;;4960427;28;20065;-76
2022/11/03 12:43:22;;;;;;;13.73;2.53;;;15.20;99.90;;;;;;4947911;28;20543;-77
2022/11/03 12:45:47;;;;;;;13.52;2.28;;;15.20;99.90;;;;;;4950937;28;20046;-79
2022/11/03 12:48:13;;;;;;;18.05;2.67;;;15.20;99.90;;;;;;4960341;28;20062;-80
2022/11/03 12:50:39;;;;;;;9.00;2.10;;;15.20;99.90;;;;;;4963845;28;20132;-82
2022/11/03 12:53:05;;;;;;;8.50;2.28;;;15.20;99.90;;;;;;4946354;28;20512;-78
2022/11/03 12:55:32;;;;;;;11.43;2.35;;;15.10;99.90;;;;;;4963569;28;20453;-81
2022/11/03 12:57:58;;;;;;;10.25;2.22;;;15.20;99.90;;;;;;4982913;28;20084;-79
2022/11/03 13:00:24;;;;;;;13.05;2.35;;;15.30;99.90;;;;;;4965030;28;20175;-80
2022/11/03 13:02:50;;;;;;;7.60;2.03;;;15.30;99.90;;;;;;4960919;28;20121;-76
2022/11/03 13:05:15;;;;;;;7.32;2.00;;;15.30;99.90;;;;;;4961976;28;20050;-80
2022/11/03 13:07:42;;;;;;;9.88;2.33;;;15.30;99.90;;;;;;5012506;28;20066;-78
2022/11/03 13:10:09;;;;;;;10.30;2.78;;;15.40;99.90;;;;;;5014464;28;20072;-78
2022/11/03 13:12:40;;;;;;;17.00;2.65;;;15.40;99.90;;;;;;5032355;28;20388;-80
2022/11/03 13:15:09;;;;;;;10.77;2.33;;;15.40;99.90;;;;;;5030094;28;20140;-79